Mutum, Brazil
Current Conditions -  °F | °C
As of 6:00 AM on Thursday 18 Dec 2014 (Local Time) from SBIL Reporting Station
Light Rain Light Rain  
Wind Chill: 75°   Ceiling: 1700
Heat Index: 75°   Visibility: 3mi
Dew Point: 72°   Wind: 9mph
Humidity: 89%   Direction: 70°ENE
Pressure: NA   Gusts: NA
Location:  12.88°S, 39.13°W
Report Text: SBIL 180900Z 07008KT 5000 -RA BR SCT010 BKN017 BKN100 24/22 Q1012
Loading
Personal Weather Stations






























Interactive Weather Map New forecast layout! Learn more

10-Day Weather Forecast

Advertisements
Track Severe Weather on mobile